Terminal Aerodrome Forecast
Issued by NWS

Home | Current Version | Previous Version | Text Only | Print | Product List | Glossary On
Versions: 1 2 3 4 5 6 7 8 9 10 11 12 13 14
000
FTUS43 KICT 011140
TAFSLN
TAF
KSLN 011140Z 0112/0212 15012KT P6SM SCT100 BKN250
     FM011400 16012KT P6SM SCT006
     FM011500 17016G24KT P6SM SCT020
     FM011800 17023G33KT P6SM SCT060
     FM020200 18018G26KT P6SM VCTS SCT050 BKN150CB
     FM020500 35012KT P6SM SCT012 BKN040=

USA.gov is the U.S. government's official web portal to all federal, state and local government web resources and services.